Time;durP1;ratioP1;P1;durP2;ratioP2;P2;SDS_P1;SDS_P2;PMS_P1;PMS_P2;Temp;Humidity;BMP_temperature;BMP_pressure;BME280_temperature;BME280_humidity;BME280_pressure;Samples;Min_cycle;Max_cycle;Signal;HPM_P1;HPM_P2
2022/09/20 00:01:22;;;;;;;6.03;3.50;;;;;;;12.40;86.98;100333.94;5026942;28;20079;-80
2022/09/20 00:03:50;;;;;;;5.43;3.88;;;;;;;12.21;87.80;100339.34;5027488;28;20037;-78
2022/09/20 00:06:19;;;;;;;6.15;3.70;;;;;;;11.52;88.09;100211.03;5027249;28;20413;-81
2022/09/20 00:08:45;;;;;;;4.93;3.53;;;;;;;12.42;87.58;100374.28;5027041;28;20045;-80
2022/09/20 00:11:14;;;;;;;5.88;3.92;;;;;;;12.16;88.22;100358.69;5026665;28;20055;-79
2022/09/20 00:13:41;;;;;;;6.22;4.28;;;;;;;12.08;88.09;100328.94;5026382;28;20528;-79
2022/09/20 00:16:08;;;;;;;7.60;4.53;;;;;;;11.21;89.10;100226.09;5026303;28;20127;-79
2022/09/20 00:18:34;;;;;;;7.55;3.72;;;;;;;12.35;88.36;100373.44;5023920;28;20044;-79
2022/09/20 00:21:00;;;;;;;8.50;4.30;;;;;;;11.11;88.76;100200.75;5005531;28;20042;-80
2022/09/20 00:23:26;;;;;;;7.35;4.38;;;;;;;12.08;88.88;100371.00;5011022;28;20041;-80
2022/09/20 00:25:56;;;;;;;8.27;4.43;;;;;;;11.30;88.53;100217.28;5026702;28;20179;-79
2022/09/20 00:28:22;;;;;;;6.38;4.40;;;;;;;11.20;88.49;100204.22;5026627;28;20045;-79
2022/09/20 00:30:49;;;;;;;6.28;4.45;;;;;;;12.14;88.27;100363.94;5026866;28;20044;-80
2022/09/20 00:33:14;;;;;;;8.43;4.47;;;;;;;12.16;88.56;100369.22;5008842;28;20493;-78
2022/09/20 00:35:43;;;;;;;5.90;4.25;;;;;;;11.27;89.12;100238.31;5030151;28;20144;-79
2022/09/20 00:38:09;;;;;;;9.75;4.95;;;;;;;12.14;88.54;100379.72;5046456;28;20142;-78
2022/09/20 00:40:35;;;;;;;10.77;5.45;;;;;;;11.29;88.37;100254.94;5046418;28;20045;-78
2022/09/20 00:43:01;;;;;;;6.00;4.47;;;;;;;11.31;88.67;100240.06;5028111;28;20119;-80
2022/09/20 00:45:29;;;;;;;6.32;4.30;;;;;;;11.98;88.13;100338.63;5028831;28;20025;-80
2022/09/20 00:48:12;;;;;;;11.23;4.82;;;;;;;11.76;88.26;100324.75;5046297;28;20075;-76
2022/09/20 00:50:44;;;;;;;6.45;4.97;;;;;;;11.28;88.06;100238.28;4991202;28;20050;-79
2022/09/20 00:53:15;;;;;;;8.23;5.30;;;;;;;12.09;87.72;100381.53;5007700;28;20528;-78
2022/09/20 00:56:06;;;;;;;7.28;4.38;;;;;;;11.91;88.64;100372.00;5027167;28;20095;-79
2022/09/20 00:58:37;;;;;;;6.78;4.88;;;;;;;11.23;88.30;100229.56;5029940;28;20058;-78
2022/09/20 01:01:03;;;;;;;6.35;5.05;;;;;;;11.83;89.11;100364.13;5011858;28;20816;-79
2022/09/20 01:03:32;;;;;;;6.55;4.95;;;;;;;12.02;88.38;100361.41;5030027;28;20083;-78
2022/09/20 01:06:02;;;;;;;6.53;4.82;;;;;;;11.21;87.46;100218.19;5030086;28;20041;-80
2022/09/20 01:08:27;;;;;;;15.18;5.22;;;;;;;11.28;87.70;100219.91;5030084;28;20069;-79
2022/09/20 01:10:53;;;;;;;8.48;5.10;;;;;;;11.98;88.12;100357.91;5029902;28;20523;-79
2022/09/20 01:13:18;;;;;;;6.32;4.47;;;;;;;12.01;87.94;100363.19;5029543;28;20493;-80
2022/09/20 01:15:48;;;;;;;6.75;4.43;;;;;;;11.91;87.94;100363.22;5030368;28;20457;-79
2022/09/20 01:18:16;;;;;;;7.22;4.53;;;;;;;11.07;87.72;100226.16;5028379;28;20045;-79
2022/09/20 01:20:44;;;;;;;8.50;5.40;;;;;;;11.87;87.70;100370.28;5010969;28;20233;-80
2022/09/20 01:23:18;;;;;;;7.43;5.70;;;;;;;11.65;88.70;100363.34;5028899;28;20099;-79
2022/09/20 01:25:44;;;;;;;7.32;5.03;;;;;;;11.75;88.23;100360.69;5029175;28;20049;-78
2022/09/20 01:28:09;;;;;;;7.00;4.65;;;;;;;10.75;89.03;100211.44;5029607;28;20511;-81
2022/09/20 01:31:11;;;;;;;7.30;5.65;;;;;;;11.56;88.93;100345.88;5030525;28;20753;-80
2022/09/20 01:34:20;;;;;;;7.05;5.05;;;;;;;11.73;88.38;100348.41;4954923;28;20147;-79
2022/09/20 01:36:50;;;;;;;6.25;5.00;;;;;;;11.53;88.80;100359.03;4948262;29;20080;-78
2022/09/20 01:39:24;;;;;;;8.73;5.38;;;;;;;11.57;89.12;100369.53;5002047;28;20072;-78
2022/09/20 01:41:54;;;;;;;6.70;5.05;;;;;;;11.66;88.22;100342.34;4991615;28;20049;-79
2022/09/20 01:45:21;;;;;;;5.47;4.07;;;;;;;11.55;88.55;100352.88;4992536;28;20056;-80
2022/09/20 01:48:02;;;;;;;9.32;5.43;;;;;;;11.49;89.30;100350.28;4951085;28;20110;-78
2022/09/20 01:50:52;;;;;;;7.25;4.85;;;;;;;11.34;89.64;100347.75;5005141;28;20137;-79
2022/09/20 01:54:00;;;;;;;12.65;5.13;;;;;;;11.33;89.81;100348.59;5008747;28;20054;-79
2022/09/20 01:56:50;;;;;;;6.50;4.72;;;;;;;11.08;90.01;100358.34;4970239;28;20100;-78
2022/09/20 01:59:35;;;;;;;9.82;5.53;;;;;;;11.16;90.16;100360.03;5024166;28;20057;-79
2022/09/20 02:02:08;;;;;;;7.80;5.80;;;;;;;11.11;90.26;100364.44;5028750;28;20124;-79
2022/09/20 02:04:45;;;;;;;;;;;;;;;10.84;91.40;100361.88;5028634;28;20042;-79
2022/09/20 02:07:29;;;;;;;6.32;5.15;;;;;;;10.31;91.41;100237.81;5028343;28;20011;-79
2022/09/20 02:10:24;;;;;;;7.40;5.40;;;;;;;11.05;90.98;100363.59;5028840;28;20064;-78
2022/09/20 02:12:53;;;;;;;5.82;4.20;;;;;;;11.15;90.76;100354.81;5007951;28;20124;-79
2022/09/20 02:15:47;;;;;;;9.05;5.22;;;;;;;11.12;90.55;100360.06;5009806;28;20041;-79
2022/09/20 02:18:37;;;;;;;9.25;6.15;;;;;;;11.22;90.05;100369.66;5024801;28;20042;-79
2022/09/20 02:21:36;;;;;;;7.47;5.20;;;;;;;10.04;91.23;100210.69;5028847;28;20792;-79
2022/09/20 02:24:37;;;;;;;7.28;5.22;;;;;;;11.14;90.67;100369.72;5028674;28;20088;-79
2022/09/20 02:27:17;;;;;;;8.55;5.75;;;;;;;11.10;90.75;100356.59;4985618;28;20050;-78
2022/09/20 02:29:43;;;;;;;8.20;6.43;;;;;;;10.71;91.46;100367.16;5041880;28;20128;-79
2022/09/20 02:32:23;;;;;;;7.43;5.78;;;;;;;11.06;90.96;100365.34;5048474;28;20163;-79
2022/09/20 02:35:23;;;;;;;7.30;5.38;;;;;;;11.03;90.58;100378.47;5030260;28;20048;-79
2022/09/20 02:38:01;;;;;;;8.02;5.75;;;;;;;10.86;91.27;100379.38;5048022;28;20087;-79
2022/09/20 02:40:44;;;;;;;6.80;5.28;;;;;;;10.01;91.58;100223.81;5048302;28;20220;-78
2022/09/20 02:43:13;;;;;;;7.07;4.78;;;;;;;10.94;90.60;100375.00;5053822;28;20044;-78
2022/09/20 02:45:49;;;;;;;6.68;4.60;;;;;;;10.09;91.60;100268.38;5062455;28;20098;-79
2022/09/20 02:48:20;;;;;;;7.97;4.80;;;;;;;10.17;91.26;100255.28;5053351;28;20126;-78
2022/09/20 02:51:01;;;;;;;7.97;5.55;;;;;;;9.91;89.93;100186.25;5009700;28;20046;-79
2022/09/20 02:53:46;;;;;;;7.88;5.85;;;;;;;10.88;89.98;100342.63;5007721;28;20058;-78
2022/09/20 02:56:40;;;;;;;9.40;5.55;;;;;;;10.92;90.13;100370.63;5008330;28;20116;-79
2022/09/20 02:59:23;;;;;;;8.30;5.15;;;;;;;10.46;91.11;100371.53;5007821;28;20049;-81
2022/09/20 03:02:27;;;;;;;8.77;5.43;;;;;;;10.70;91.04;100385.50;5010547;28;20049;-79
2022/09/20 03:04:56;;;;;;;7.28;5.47;;;;;;;10.58;91.08;100391.66;5027747;28;20053;-79
2022/09/20 03:07:40;;;;;;;9.10;5.50;;;;;;;10.34;91.89;100382.03;5027773;28;20049;-78
2022/09/20 03:10:10;;;;;;;7.47;5.38;;;;;;;9.52;91.54;100256.09;5027622;28;20041;-79
2022/09/20 03:12:44;;;;;;;7.20;6.10;;;;;;;10.46;91.50;100391.66;5027777;28;20037;-78
2022/09/20 03:15:39;;;;;;;8.55;5.45;;;;;;;10.35;91.04;100379.44;5026953;28;20119;-79
2022/09/20 03:18:13;;;;;;;6.78;4.93;;;;;;;10.65;90.61;100390.81;5006022;28;20120;-79
2022/09/20 03:20:38;;;;;;;9.38;5.65;;;;;;;10.37;91.22;100386.41;5007966;28;20499;-79
2022/09/20 03:23:34;;;;;;;7.82;4.72;;;;;;;9.60;90.92;100255.25;5008731;28;20136;-79
2022/09/20 03:26:06;;;;;;;6.82;4.88;;;;;;;10.59;90.66;100395.16;5025864;28;20240;-80
2022/09/20 03:28:47;;;;;;;6.60;5.25;;;;;;;10.61;90.00;100386.41;5025903;28;20053;-79
2022/09/20 03:31:36;;;;;;;7.22;5.28;;;;;;;10.44;90.41;100382.91;5027036;28;20053;-79
2022/09/20 03:34:19;;;;;;;8.52;5.75;;;;;;;9.54;89.92;100240.41;5026939;28;20152;-80
2022/09/20 03:36:47;;;;;;;6.05;4.90;;;;;;;10.46;90.38;100399.53;5009611;28;20637;-80
2022/09/20 03:39:31;;;;;;;7.32;5.63;;;;;;;10.30;91.06;100382.91;5026996;28;20848;-80
2022/09/20 03:42:25;;;;;;;8.40;5.80;;;;;;;10.48;90.06;100393.41;5026332;28;20049;-78
2022/09/20 03:45:25;;;;;;;6.68;4.63;;;;;;;10.09;91.08;100389.88;5015588;28;20533;-80
2022/09/20 03:47:57;;;;;;;7.57;5.30;;;;;;;10.31;90.21;100398.66;5026798;28;20061;-79
2022/09/20 03:50:36;;;;;;;7.50;5.93;;;;;;;10.10;90.33;100396.84;5018631;28;20445;-79
2022/09/20 03:53:24;;;;;;;7.40;5.90;;;;;;;10.42;89.70;100406.53;5020148;28;20053;-80
2022/09/20 03:55:49;;;;;;;6.10;4.88;;;;;;;10.29;89.26;100403.00;5007032;28;20458;-78
2022/09/20 03:58:26;;;;;;;6.40;4.88;;;;;;;10.12;89.95;100407.34;5007006;28;20050;-80
2022/09/20 04:00:54;;;;;;;7.95;5.85;;;;;;;10.17;90.36;100423.94;5006718;28;20033;-79
2022/09/20 04:03:26;;;;;;;11.30;5.07;;;;;;;10.04;89.81;100419.53;4989911;28;20465;-80
2022/09/20 04:06:13;;;;;;;8.43;5.30;;;;;;;10.23;89.69;100418.72;5006942;28;20080;-79
2022/09/20 04:09:17;;;;;;;6.88;5.07;;;;;;;10.17;89.37;100417.84;5006775;28;20061;-80
2022/09/20 04:11:59;;;;;;;6.28;5.50;;;;;;;9.86;89.43;100388.94;4985585;28;20127;-78
2022/09/20 04:14:49;;;;;;;8.65;5.93;;;;;;;10.27;88.98;100428.31;5004853;28;20073;-78
2022/09/20 04:17:41;;;;;;;5.47;4.43;;;;;;;10.34;88.37;100419.63;5002787;28;20054;-78
2022/09/20 04:20:31;;;;;;;6.25;4.40;;;;;;;10.43;87.38;100421.38;4993469;28;20090;-78
2022/09/20 04:23:04;;;;;;;7.65;4.78;;;;;;;10.40;87.25;100420.53;4987668;28;20087;-76
2022/09/20 04:25:40;;;;;;;9.63;4.85;;;;;;;9.90;88.52;100428.28;5006952;28;20049;-77
2022/09/20 04:28:20;;;;;;;6.82;5.43;;;;;;;10.23;88.50;100441.44;5007827;28;20040;-79
2022/09/20 04:30:48;;;;;;;6.18;4.70;;;;;;;9.14;87.67;100261.25;5010791;28;20038;-78
2022/09/20 04:33:33;;;;;;;12.50;5.20;;;;;;;10.20;87.59;100439.69;4992556;28;20585;-79
2022/09/20 04:36:30;;;;;;;10.50;4.97;;;;;;;10.18;87.22;100444.03;5010150;28;20081;-78
2022/09/20 04:39:18;;;;;;;8.57;5.50;;;;;;;9.22;87.07;100290.06;4992345;28;20129;-79
2022/09/20 04:41:56;;;;;;;12.05;4.63;;;;;;;10.21;87.29;100451.03;5009723;28;20054;-78
2022/09/20 04:44:55;;;;;;;10.93;5.10;;;;;;;10.38;86.82;100444.13;4992088;28;20050;-79
2022/09/20 04:47:55;;;;;;;9.40;4.75;;;;;;;10.41;86.28;100451.13;5009727;28;20132;-77
2022/09/20 04:51:10;;;;;;;12.70;5.15;;;;;;;10.41;86.29;100445.88;4994654;28;20057;-79
2022/09/20 04:54:09;;;;;;;11.45;5.05;;;;;;;9.89;87.19;100447.47;4977157;28;20066;-79
2022/09/20 04:57:09;;;;;;;17.33;6.53;;;;;;;10.18;86.40;100457.16;4989992;28;20054;-77
2022/09/20 05:00:14;;;;;;;9.05;4.88;;;;;;;9.38;86.07;100306.72;4988234;28;20139;-80
2022/09/20 05:02:51;;;;;;;6.97;4.15;;;;;;;10.38;86.09;100465.09;4980478;28;20137;-81
2022/09/20 05:05:35;;;;;;;13.32;4.72;;;;;;;9.80;85.34;100355.72;4989885;28;20058;-77
2022/09/20 05:08:06;;;;;;;;;;;;;;;10.40;84.98;100473.00;4987259;28;20056;-77
2022/09/20 05:11:11;;;;;;;10.68;4.68;;;;;;;9.65;85.15;100369.66;4992429;28;19967;-78
2022/09/20 05:14:06;;;;;;;5.07;3.13;;;;;;;10.29;84.50;100483.44;4991651;28;20503;-77
2022/09/20 05:16:47;;;;;;;5.80;4.50;;;;;;;10.17;84.80;100468.53;5008430;28;20100;-78
2022/09/20 05:19:35;;;;;;;10.77;4.07;;;;;;;10.19;84.74;100479.03;4976824;28;20054;-78
2022/09/20 05:22:38;;;;;;;17.45;5.03;;;;;;;10.32;84.63;100467.72;5009471;28;20049;-78
2022/09/20 05:25:31;;;;;;;11.27;3.80;;;;;;;10.35;84.03;100476.47;5009294;28;20030;-78
2022/09/20 05:28:31;;;;;;;6.18;3.70;;;;;;;9.71;82.92;100334.72;5009621;28;20049;-80
2022/09/20 05:31:21;;;;;;;8.43;4.90;;;;;;;10.55;82.41;100499.22;4978338;28;20132;-79
2022/09/20 05:33:55;;;;;;;7.07;4.07;;;;;;;10.03;81.90;100365.38;5009930;28;20065;-78
2022/09/20 05:36:42;;;;;;;7.45;3.63;;;;;;;10.92;81.13;100486.13;5009223;28;20077;-79
2022/09/20 05:39:36;;;;;;;6.82;4.18;;;;;;;10.06;80.58;100350.50;5009005;28;20066;-79
2022/09/20 05:42:14;;;;;;;;;;;;;;;11.51;78.83;100481.66;5009721;28;20046;-78
2022/09/20 05:45:01;;;;;;;5.38;3.08;;;;;;;11.88;76.44;100494.72;5007734;28;19995;-79
2022/09/20 05:47:56;;;;;;;5.97;3.45;;;;;;;12.26;74.76;100502.41;5024627;28;20078;-78
2022/09/20 05:50:40;;;;;;;8.65;3.50;;;;;;;12.37;74.03;100526.06;4995844;28;20065;-78
2022/09/20 05:53:09;;;;;;;6.72;2.88;;;;;;;12.37;73.24;100526.94;5009593;28;20061;-78
2022/09/20 05:55:59;;;;;;;6.15;3.92;;;;;;;12.35;72.92;100523.41;5009885;28;20045;-81
2022/09/20 05:58:42;;;;;;;7.90;3.05;;;;;;;12.21;72.97;100483.16;4999520;28;20048;-79
2022/09/20 06:01:11;;;;;;;5.07;2.80;;;;;;;12.46;73.21;100520.75;4991930;28;20188;-78
2022/09/20 06:03:41;;;;;;;7.35;3.13;;;;;;;12.38;73.41;100518.13;5010310;28;20033;-78
2022/09/20 06:06:21;;;;;;;6.00;3.00;;;;;;;12.36;72.79;100519.03;5008757;28;20053;-79
2022/09/20 06:09:22;;;;;;;17.38;4.00;;;;;;;12.45;73.30;100525.13;5008957;28;20070;-80
2022/09/20 06:11:54;;;;;;;8.35;3.17;;;;;;;12.59;72.70;100539.94;4991049;28;20524;-79
2022/09/20 06:14:39;;;;;;;11.45;2.88;;;;;;;12.56;72.02;100538.22;5000651;28;20486;-78
2022/09/20 06:17:11;;;;;;;5.95;2.65;;;;;;;12.45;71.70;100534.78;5007135;28;20046;-79
2022/09/20 06:19:36;;;;;;;8.93;3.22;;;;;;;12.52;72.02;100538.25;5000335;28;20065;-80
2022/09/20 06:22:12;;;;;;;10.60;3.78;;;;;;;12.37;72.12;100505.00;4988898;28;20540;-80
2022/09/20 06:25:07;;;;;;;8.05;3.28;;;;;;;12.50;72.06;100543.50;5003230;28;20030;-79
2022/09/20 06:27:46;;;;;;;9.32;3.15;;;;;;;12.23;72.23;100505.06;4997290;28;20061;-79
2022/09/20 06:30:28;;;;;;;6.68;2.72;;;;;;;12.36;71.39;100529.56;5008534;28;20061;-80
2022/09/20 06:32:56;;;;;;;5.88;2.50;;;;;;;12.41;71.23;100512.00;5008165;28;20053;-80
2022/09/20 06:35:26;;;;;;;10.95;2.80;;;;;;;12.08;71.54;100461.31;5007905;28;20101;-79
2022/09/20 06:44:00;;;;;;;9.68;3.03;;;;;;;12.41;71.28;100470.78;4927689;29;20050;-79
2022/09/20 06:46:27;;;;;;;4.75;2.20;;;;;;;12.10;70.59;100416.59;4927966;29;20115;-80
2022/09/20 06:48:54;;;;;;;5.35;2.25;;;;;;;12.41;69.60;100454.97;4965509;28;20149;-78
2022/09/20 06:51:21;;;;;;;5.22;1.95;;;;;;;13.03;69.37;100562.47;4987996;28;20061;-79
2022/09/20 06:53:47;;;;;;;3.90;2.60;;;;;;;12.70;69.06;100477.56;4999677;28;20165;-78
2022/09/20 06:56:21;;;;;;;5.13;2.47;;;;;;;12.95;70.09;100522.16;5009446;28;20144;-79
2022/09/20 06:59:07;;;;;;;7.85;2.95;;;;;;;12.90;68.26;100511.66;4998996;28;20039;-78
2022/09/20 07:01:32;;;;;;;8.15;2.38;;;;;;;13.20;68.31;100551.78;5027257;28;20045;-78
2022/09/20 07:03:58;;;;;;;8.25;2.60;;;;;;;13.18;67.20;100553.56;5027468;28;20116;-77
2022/09/20 07:06:24;;;;;;;7.65;2.65;;;;;;;11.98;68.33;100321.09;5010416;28;20037;-78
2022/09/20 07:08:49;;;;;;;4.05;2.10;;;;;;;13.03;66.85;100562.47;5027142;28;20531;-78
2022/09/20 07:11:16;;;;;;;3.15;1.60;;;;;;;12.68;66.17;100432.81;5036812;28;20509;-78
2022/09/20 07:13:42;;;;;;;3.72;2.00;;;;;;;12.76;65.68;100427.50;5027642;28;20045;-78
2022/09/20 07:16:12;;;;;;;12.32;1.98;;;;;;;13.43;65.54;100533.19;5026916;28;20046;-78
2022/09/20 07:18:40;;;;;;;6.90;1.60;;;;;;;12.81;64.17;100433.59;5007796;28;20052;-80
2022/09/20 07:21:05;;;;;;;2.58;1.45;;;;;;;13.06;63.77;100422.81;5007865;28;20046;-79
2022/09/20 07:23:31;;;;;;;13.35;1.40;;;;;;;13.09;63.59;100404.38;4994651;28;20552;-79
2022/09/20 07:25:59;;;;;;;7.00;2.22;;;;;;;13.45;62.36;100494.50;5027327;28;20056;-79
2022/09/20 07:28:26;;;;;;;2.63;1.42;;;;;;;13.63;61.82;100504.84;5017338;28;20096;-79
2022/09/20 07:30:51;;;;;;;4.03;1.20;;;;;;;14.17;61.85;100571.94;5026748;28;20037;-79
2022/09/20 07:33:23;;;;;;;7.82;1.58;;;;;;;14.14;60.39;100544.69;5027581;28;20029;-78
2022/09/20 07:35:52;;;;;;;3.17;1.40;;;;;;;13.87;59.98;100503.69;5027410;28;20068;-78
2022/09/20 07:38:17;;;;;;;4.50;1.98;;;;;;;14.40;60.53;100577.81;5027241;28;20111;-79
2022/09/20 07:40:45;;;;;;;2.95;1.00;;;;;;;13.97;59.42;100511.47;5027119;28;20486;-79
2022/09/20 07:43:11;;;;;;;4.55;1.20;;;;;;;14.38;59.28;100566.38;5026953;28;20482;-78
2022/09/20 07:45:40;;;;;;;3.05;0.90;;;;;;;14.38;57.48;100573.44;5027751;28;20029;-79
2022/09/20 07:48:07;;;;;;;2.08;1.15;;;;;;;14.46;57.67;100558.34;5026888;28;20053;-78
2022/09/20 07:50:33;;;;;;;3.72;1.50;;;;;;;14.52;57.93;100566.22;5011048;28;20057;-78
2022/09/20 07:52:59;;;;;;;4.00;1.67;;;;;;;14.62;59.40;100567.84;5007156;28;20688;-79
2022/09/20 07:55:24;;;;;;;2.55;0.98;;;;;;;14.53;55.97;100568.81;5021643;28;20795;-79
2022/09/20 07:57:50;;;;;;;2.22;1.30;;;;;;;14.33;55.44;100532.13;5026995;28;20041;-78
2022/09/20 08:00:16;;;;;;;3.13;1.20;;;;;;;14.35;57.77;100553.19;5026405;28;20021;-78
2022/09/20 08:02:43;;;;;;;1.70;1.00;;;;;;;14.34;56.54;100496.03;5027120;28;20081;-80
2022/09/20 08:05:08;;;;;;;4.32;1.40;;;;;;;13.49;55.52;100332.78;5030715;28;20045;-78
2022/09/20 08:07:34;;;;;;;4.15;1.10;;;;;;;13.87;57.02;100432.47;5049955;28;20131;-79
2022/09/20 08:10:03;;;;;;;8.90;1.20;;;;;;;13.98;58.65;100440.25;5050338;28;20098;-83
2022/09/20 08:12:29;;;;;;;3.80;1.40;;;;;;;14.41;56.99;100534.66;5032052;28;20033;-80
2022/09/20 08:14:55;;;;;;;2.85;1.27;;;;;;;14.70;56.44;100536.94;5030395;28;20049;-79
2022/09/20 08:17:20;;;;;;;3.28;1.25;;;;;;;14.68;56.97;100521.97;5010653;28;20065;-80
2022/09/20 08:19:46;;;;;;;4.45;1.58;;;;;;;14.97;55.98;100563.81;5021514;28;20048;-80
2022/09/20 08:22:12;;;;;;;4.15;1.65;;;;;;;14.79;56.22;100554.38;5010987;28;20041;-79
2022/09/20 08:24:38;;;;;;;9.80;1.63;;;;;;;14.92;56.77;100553.31;5025475;28;20032;-81
2022/09/20 08:27:03;;;;;;;3.92;1.88;;;;;;;13.83;54.73;100424.59;5030263;28;20348;-79
2022/09/20 08:29:29;;;;;;;2.70;1.33;;;;;;;14.77;55.91;100541.22;5030055;28;20485;-78
2022/09/20 08:31:57;;;;;;;5.60;1.58;;;;;;;14.82;53.88;100553.47;5030059;28;20045;-79
2022/09/20 08:34:23;;;;;;;2.45;1.55;;;;;;;14.85;53.80;100530.53;5029756;28;20400;-79
2022/09/20 08:36:50;;;;;;;3.17;1.30;;;;;;;14.76;52.96;100530.66;5012129;28;20034;-76
2022/09/20 08:39:17;;;;;;;3.08;1.10;;;;;;;14.29;52.26;100522.50;5030730;28;20041;-78
2022/09/20 08:42:05;;;;;;;3.60;1.23;;;;;;;14.06;52.94;100419.88;5012103;28;20081;-78
2022/09/20 08:44:39;;;;;;;4.55;1.67;;;;;;;14.82;53.35;100537.59;5048135;28;20049;-78
2022/09/20 08:47:18;;;;;;;4.00;1.63;;;;;;;15.15;52.08;100552.06;5029233;28;20049;-79
2022/09/20 08:49:43;;;;;;;3.00;1.00;;;;;;;15.27;51.71;100554.50;5021948;28;20050;-78
2022/09/20 08:52:16;;;;;;;3.38;1.02;;;;;;;14.49;51.28;100431.56;5021303;28;20092;-79
2022/09/20 08:54:42;;;;;;;12.35;1.13;;;;;;;14.44;51.07;100414.94;5029994;28;20498;-79
2022/09/20 08:57:16;;;;;;;4.40;1.27;;;;;;;15.26;50.56;100551.88;5029509;28;20120;-78
2022/09/20 08:59:42;;;;;;;2.65;1.08;;;;;;;15.34;49.93;100556.16;5011781;28;20049;-79
2022/09/20 09:02:15;;;;;;;5.32;1.35;;;;;;;14.59;50.66;100417.38;5029179;28;20583;-79
2022/09/20 09:04:42;;;;;;;3.00;1.40;;;;;;;14.16;50.54;100407.44;5029943;28;20049;-78
2022/09/20 09:07:12;;;;;;;9.40;1.73;;;;;;;14.30;51.15;100410.72;5029680;28;20083;-79
2022/09/20 09:09:40;;;;;;;2.78;0.90;;;;;;;15.36;50.64;100533.19;5029914;28;20568;-80
2022/09/20 09:12:21;;;;;;;3.00;1.23;;;;;;;15.08;50.54;100476.44;5029112;28;20041;-78
2022/09/20 09:14:56;;;;;;;4.20;1.00;;;;;;;15.43;51.19;100520.75;5028868;28;20374;-79
2022/09/20 09:17:27;;;;;;;11.98;2.95;;;;;;;14.89;51.89;100402.75;5009588;28;20057;-79
2022/09/20 09:20:20;;;;;;;3.10;1.42;;;;;;;14.93;49.98;100422.94;4994349;28;20186;-79
2022/09/20 09:22:56;;;;;;;3.90;1.45;;;;;;;15.37;48.22;100500.56;5010770;28;20408;-79
2022/09/20 09:25:24;;;;;;;2.58;1.17;;;;;;;15.57;47.79;100534.59;5025388;28;20095;-78
2022/09/20 09:28:00;;;;;;;4.20;1.25;;;;;;;15.54;48.69;100542.53;5028001;28;20053;-80
2022/09/20 09:30:31;;;;;;;8.68;1.70;;;;;;;15.74;48.91;100496.38;5029470;28;20033;-77
2022/09/20 09:33:16;;;;;;;3.72;1.33;;;;;;;15.87;48.58;100523.47;5029023;28;20057;-78
2022/09/20 09:35:44;;;;;;;5.00;0.98;;;;;;;14.78;50.21;100402.09;5028685;28;20099;-81
2022/09/20 09:38:30;;;;;;;2.55;1.10;;;;;;;15.66;50.34;100501.78;5027809;28;20064;-80
2022/09/20 09:40:59;;;;;;;2.38;0.70;;;;;;;16.06;48.10;100521.31;5028471;28;20081;-79
2022/09/20 09:43:28;;;;;;;3.72;0.93;;;;;;;15.68;46.02;100447.06;5027865;28;20438;-79
2022/09/20 09:45:56;;;;;;;2.42;1.00;;;;;;;15.32;46.14;100411.66;5028950;28;20092;-78
2022/09/20 09:48:32;;;;;;;1.67;0.80;;;;;;;16.00;46.41;100482.63;5028736;28;20504;-81
2022/09/20 09:51:14;;;;;;;3.20;0.88;;;;;;;16.06;46.11;100441.88;5010194;28;20104;-79
2022/09/20 09:53:41;;;;;;;6.68;1.67;;;;;;;15.66;45.10;100374.78;5008160;28;20066;-81
2022/09/20 09:56:18;;;;;;;6.88;1.98;;;;;;;15.42;44.39;100360.31;5028841;28;20054;-78
2022/09/20 09:59:14;;;;;;;2.92;0.85;;;;;;;16.41;44.27;100494.06;5027218;28;20049;-79
2022/09/20 10:02:17;;;;;;;2.55;0.70;;;;;;;16.83;43.67;100507.22;5028310;28;20067;-81
2022/09/20 10:04:51;;;;;;;5.05;0.90;;;;;;;16.88;41.01;100514.19;5028183;28;20052;-79
2022/09/20 10:07:44;;;;;;;3.03;0.73;;;;;;;16.99;41.98;100492.69;5013521;28;20047;-80
2022/09/20 10:10:24;;;;;;;1.90;0.60;;;;;;;16.97;42.27;100496.28;5048281;28;20041;-79
2022/09/20 10:12:59;;;;;;;3.17;0.63;;;;;;;16.94;42.16;100507.84;5007312;28;20034;-79
2022/09/20 10:15:40;;;;;;;1.02;0.65;;;;;;;16.95;41.46;100500.75;5010077;28;20180;-81
2022/09/20 10:18:39;;;;;;;3.10;0.63;;;;;;;16.77;40.84;100500.28;5026681;28;20057;-81
2022/09/20 10:21:17;;;;;;;1.70;0.68;;;;;;;17.02;40.25;100495.28;5009094;28;20053;-78
2022/09/20 10:23:50;;;;;;;2.33;1.25;;;;;;;17.29;39.33;100491.03;5014765;28;20081;-79
2022/09/20 10:26:40;;;;;;;9.13;1.20;;;;;;;17.39;40.56;100459.81;5027104;28;20153;-78
2022/09/20 10:29:17;;;;;;;0.55;0.35;;;;;;;17.67;40.21;100489.09;5028102;28;20079;-80
2022/09/20 10:31:59;;;;;;;1.33;0.50;;;;;;;17.31;40.70;100485.69;5010165;28;20516;-80
2022/09/20 10:34:39;;;;;;;1.45;0.60;;;;;;;17.73;39.46;100480.13;5028045;28;20042;-80
2022/09/20 10:37:16;;;;;;;2.60;0.40;;;;;;;17.52;38.61;100473.63;5028120;28;20029;-79
2022/09/20 10:39:49;;;;;;;1.08;0.40;;;;;;;18.21;37.25;100454.84;5027190;28;20037;-80
2022/09/20 10:45:18;;;;;;;5.50;0.65;;;;;;;18.30;36.50;100455.41;5027645;28;20417;-79
2022/09/20 10:48:08;;;;;;;1.17;0.40;;;;;;;18.04;38.18;100347.34;5027606;28;20053;-79
2022/09/20 10:51:04;;;;;;;2.15;0.52;;;;;;;18.31;39.03;100340.28;4994542;28;20100;-78
2022/09/20 10:53:51;;;;;;;1.10;0.70;;;;;;;19.38;38.14;100471.34;5008744;28;20058;-79
2022/09/20 10:56:28;;;;;;;5.10;0.70;;;;;;;18.98;37.84;100475.41;5045632;28;20103;-80
2022/09/20 10:59:31;;;;;;;4.90;1.05;;;;;;;19.23;36.49;100463.94;5048075;28;20049;-80
2022/09/20 11:02:00;;;;;;;2.65;0.90;;;;;;;19.78;37.19;100459.31;5029215;28;20179;-80
2022/09/20 11:04:50;;;;;;;2.20;0.77;;;;;;;19.70;38.07;100473.81;5029751;28;20067;-79
2022/09/20 11:07:25;;;;;;;1.77;0.90;;;;;;;19.35;38.39;100455.50;5047096;28;20041;-78
2022/09/20 11:10:14;;;;;;;4.03;0.80;;;;;;;19.44;38.56;100459.63;5047242;28;20025;-80
2022/09/20 11:12:49;;;;;;;5.78;0.68;;;;;;;18.67;39.72;100316.03;5008269;28;20037;-82
2022/09/20 11:15:23;;;;;;;1.65;0.70;;;;;;;19.48;38.90;100461.28;5008737;28;20062;-79
2022/09/20 11:18:05;;;;;;;2.28;0.50;;;;;;;19.09;38.49;100363.34;5025538;28;20108;-80
2022/09/20 11:20:54;;;;;;;4.13;0.80;;;;;;;19.27;39.71;100446.03;5008724;28;20089;-78
2022/09/20 11:23:38;;;;;;;4.03;1.25;;;;;;;19.30;37.97;100448.63;5009023;28;20056;-79
2022/09/20 11:26:13;;;;;;;4.55;1.20;;;;;;;18.97;39.12;100438.25;5023216;28;20497;-79
2022/09/20 11:28:47;;;;;;;3.47;1.08;;;;;;;18.64;39.16;100441.06;5026262;28;20775;-79
2022/09/20 11:31:13;;;;;;;3.97;0.57;;;;;;;18.63;39.40;100441.13;5009750;28;20041;-80
2022/09/20 11:33:53;;;;;;;4.47;0.47;;;;;;;18.33;40.17;100406.63;5027539;28;20037;-80
2022/09/20 11:36:53;;;;;;;1.48;0.57;;;;;;;19.00;39.67;100440.78;5026764;28;20046;-79
2022/09/20 11:39:31;;;;;;;5.95;1.48;;;;;;;17.91;39.83;100299.09;5028891;28;20053;-81
2022/09/20 11:42:00;;;;;;;5.22;0.88;;;;;;;18.61;38.81;100392.44;5015879;28;20056;-79
2022/09/20 11:44:25;;;;;;;1.38;0.50;;;;;;;18.35;40.31;100290.56;5038996;28;20045;-78
2022/09/20 11:46:59;;;;;;;2.33;0.60;;;;;;;18.85;39.92;100442.19;5017508;28;20490;-80
2022/09/20 11:50:03;;;;;;;1.98;0.70;;;;;;;18.61;39.70;100435.84;5023839;28;20338;-80
2022/09/20 11:53:03;;;;;;;3.30;0.43;;;;;;;17.73;38.08;100311.13;5043939;28;20097;-78
2022/09/20 11:55:57;;;;;;;1.73;0.60;;;;;;;18.27;39.72;100441.38;5013300;28;20069;-79
2022/09/20 11:58:25;;;;;;;3.28;0.93;;;;;;;17.94;39.64;100388.41;5008841;28;20038;-80
2022/09/20 12:00:54;;;;;;;22.85;1.20;;;;;;;17.87;39.76;100398.34;5008585;28;20041;-79
2022/09/20 12:03:28;;;;;;;1.35;0.63;;;;;;;17.41;40.32;100306.81;5026864;28;20040;-79
2022/09/20 12:06:03;;;;;;;2.70;0.30;;;;;;;17.19;38.41;100273.91;5026442;28;20053;-78
2022/09/20 12:08:34;;;;;;;2.47;0.70;;;;;;;18.35;39.38;100434.03;5026646;28;20033;-81
2022/09/20 12:11:14;;;;;;;6.72;0.80;;;;;;;17.73;38.75;100287.25;5026629;28;20046;-77
2022/09/20 12:13:42;;;;;;;2.97;1.10;;;;;;;18.42;37.98;100360.31;5026576;28;20042;-78
2022/09/20 12:16:14;;;;;;;1.45;0.50;;;;;;;18.58;37.04;100417.34;5026387;28;20022;-80
2022/09/20 12:19:01;;;;;;;1.55;0.55;;;;;;;18.19;39.20;100374.34;5025319;28;20049;-80
2022/09/20 12:21:27;;;;;;;1.63;0.65;;;;;;;17.62;39.04;100310.59;5026581;28;20045;-80
2022/09/20 12:23:52;;;;;;;2.90;1.05;;;;;;;18.33;38.77;100433.19;5008612;28;20378;-79